Time;durP1;ratioP1;P1;durP2;ratioP2;P2;SDS_P1;SDS_P2;PMS_P1;PMS_P2;Temp;Humidity;BMP_temperature;BMP_pressure;BME280_temperature;BME280_humidity;BME280_pressure;Samples;Min_cycle;Max_cycle;Signal;HPM_P1;HPM_P2
2022/08/25 00:02:07;;;;;;;3.33;3.13;;;28.50;40.10;;;;;;4991895;28;20481;-71
2022/08/25 00:04:37;;;;;;;3.00;2.80;;;28.50;40.10;;;;;;4990861;28;20440;-71
2022/08/25 00:07:09;;;;;;;3.20;3.00;;;28.50;40.20;;;;;;5001228;28;20461;-71
2022/08/25 00:09:38;;;;;;;3.47;3.17;;;28.50;40.20;;;;;;4993051;28;20820;-71
2022/08/25 00:12:07;;;;;;;4.90;3.13;;;28.50;39.90;;;;;;4992676;28;20459;-72
2022/08/25 00:14:38;;;;;;;3.23;2.93;;;28.50;40.10;;;;;;4991889;28;20453;-71
2022/08/25 00:17:06;;;;;;;4.30;3.53;;;28.50;40.10;;;;;;5000447;28;20877;-71
2022/08/25 00:19:37;;;;;;;3.27;2.97;;;28.50;39.90;;;;;;5023178;28;20510;-71
2022/08/25 00:22:08;;;;;;;2.90;2.70;;;28.50;40.20;;;;;;4991914;28;20464;-71
2022/08/25 00:24:36;;;;;;;3.20;2.90;;;28.50;40.30;;;;;;4992258;28;20457;-71
2022/08/25 00:27:06;;;;;;;3.00;2.80;;;28.50;40.30;;;;;;4992565;28;20461;-71
2022/08/25 00:29:36;;;;;;;3.20;2.97;;;28.50;40.20;;;;;;4992164;28;20456;-71
2022/08/25 00:32:05;;;;;;;3.13;2.83;;;28.50;40.20;;;;;;5008620;28;20519;-71
2022/08/25 00:34:37;;;;;;;2.97;2.77;;;28.50;40.40;;;;;;5007670;28;20551;-71
2022/08/25 00:37:09;;;;;;;2.83;2.63;;;28.50;40.20;;;;;;4986062;28;20481;-71
2022/08/25 00:39:38;;;;;;;3.47;3.17;;;28.40;39.70;;;;;;4992492;28;20956;-71
2022/08/25 00:42:08;;;;;;;3.30;3.10;;;28.50;39.70;;;;;;4991664;28;21050;-71
2022/08/25 00:44:43;;;;;;;3.83;3.53;;;28.40;39.80;;;;;;4989709;28;20438;-71
2022/08/25 00:47:12;;;;;;;3.00;2.80;;;28.50;39.50;;;;;;5014779;28;20487;-71
2022/08/25 00:49:44;;;;;;;4.20;3.80;;;28.50;39.50;;;;;;4992251;28;20480;-71
2022/08/25 00:52:17;;;;;;;3.07;2.80;;;28.50;39.40;;;;;;5003454;28;20534;-71
2022/08/25 00:54:50;;;;;;;3.57;3.37;;;28.50;39.40;;;;;;4992058;28;20831;-71
2022/08/25 00:57:23;;;;;;;3.47;3.27;;;28.40;39.30;;;;;;4991841;28;20531;-71
2022/08/25 01:00:05;;;;;;;2.70;2.50;;;28.50;39.80;;;;;;5007197;28;20612;-71
2022/08/25 01:02:33;;;;;;;3.50;3.20;;;28.40;40.00;;;;;;5007081;28;20907;-71
2022/08/25 01:05:02;;;;;;;2.97;2.77;;;28.40;39.70;;;;;;4989965;28;20977;-71
2022/08/25 01:07:36;;;;;;;3.20;3.00;;;28.40;39.70;;;;;;4990904;28;20933;-71
2022/08/25 01:10:07;;;;;;;2.97;2.77;;;28.40;39.90;;;;;;4991729;28;20440;-71
2022/08/25 01:12:37;;;;;;;3.00;2.80;;;28.40;39.80;;;;;;5015945;28;20890;-71
2022/08/25 01:15:08;;;;;;;3.17;2.97;;;28.40;40.00;;;;;;5004261;28;20812;-71
2022/08/25 01:17:46;;;;;;;3.20;3.00;;;28.40;39.80;;;;;;4991284;28;20869;-71
2022/08/25 01:20:15;;;;;;;2.83;2.60;;;28.40;40.00;;;;;;4977424;23;20544;-70
2022/08/25 01:22:45;;;;;;;3.27;3.00;;;28.40;39.80;;;;;;4989963;28;20489;-70
2022/08/25 01:25:34;;;;;;;2.90;2.70;;;28.40;39.80;;;;;;4992747;28;20456;-70
2022/08/25 01:28:04;;;;;;;3.20;3.00;;;28.40;39.60;;;;;;4982432;28;20441;-70
2022/08/25 01:30:33;;;;;;;3.37;3.07;;;28.40;39.70;;;;;;4983909;28;20889;-70
2022/08/25 01:33:04;;;;;;;3.00;2.80;;;28.40;39.90;;;;;;4992890;28;20473;-70
2022/08/25 01:35:33;;;;;;;3.33;3.03;;;28.40;39.90;;;;;;4984858;28;20465;-70
2022/08/25 01:38:05;;;;;;;3.40;2.90;;;28.40;39.70;;;;;;4988847;28;20430;-70
2022/08/25 01:40:34;;;;;;;2.70;2.50;;;28.40;39.70;;;;;;4995245;28;20477;-70
2022/08/25 01:43:11;;;;;;;2.80;2.60;;;28.40;39.80;;;;;;4983280;28;20474;-70
2022/08/25 01:45:43;;;;;;;3.10;2.90;;;28.40;40.00;;;;;;4984546;28;20794;-70
2022/08/25 01:48:12;;;;;;;2.80;2.60;;;28.30;39.90;;;;;;4982878;28;20501;-71
2022/08/25 01:50:42;;;;;;;3.10;2.80;;;28.40;39.90;;;;;;4976525;28;20476;-70
2022/08/25 01:53:18;;;;;;;3.63;3.33;;;28.30;39.70;;;;;;4979587;28;20445;-70
2022/08/25 01:56:00;;;;;;;3.53;3.23;;;28.30;39.60;;;;;;4989834;28;20445;-70
2022/08/25 01:58:32;;;;;;;2.67;2.47;;;28.30;40.00;;;;;;4996710;28;20474;-70
2022/08/25 02:01:02;;;;;;;3.13;2.93;;;28.30;39.60;;;;;;4985556;28;20537;-70
2022/08/25 02:03:31;;;;;;;3.70;3.50;;;28.30;39.60;;;;;;4998334;28;20499;-70
2022/08/25 02:06:00;;;;;;;3.63;3.33;;;28.30;39.60;;;;;;4987028;28;20446;-70
2022/08/25 02:08:33;;;;;;;2.83;2.63;;;28.30;39.70;;;;;;4990792;28;20809;-70
2022/08/25 02:11:02;;;;;;;3.23;3.03;;;28.30;39.80;;;;;;5006988;28;20469;-70
2022/08/25 02:13:30;;;;;;;2.67;2.47;;;28.30;39.90;;;;;;5000994;28;20968;-70
2022/08/25 02:16:01;;;;;;;3.13;2.93;;;28.30;39.80;;;;;;4987987;28;20445;-70
2022/08/25 02:18:30;;;;;;;3.20;2.90;;;28.30;39.80;;;;;;4977881;28;20976;-70
2022/08/25 02:20:58;;;;;;;3.10;2.90;;;28.30;39.90;;;;;;4988937;28;20453;-70
2022/08/25 02:23:27;;;;;;;2.80;2.60;;;28.30;40.20;;;;;;4991739;28;20473;-70
2022/08/25 02:25:57;;;;;;;4.77;3.23;;;28.30;40.10;;;;;;4985202;28;20469;-70
2022/08/25 02:28:26;;;;;;;3.20;2.97;;;28.30;40.20;;;;;;4985116;28;20454;-70
2022/08/25 02:30:54;;;;;;;4.63;3.20;;;28.30;40.20;;;;;;4990846;28;20441;-70
2022/08/25 02:33:29;;;;;;;3.10;2.90;;;28.30;40.50;;;;;;4976812;28;20465;-70
2022/08/25 02:35:59;;;;;;;3.23;3.03;;;28.30;40.50;;;;;;5007725;28;20460;-71
2022/08/25 02:38:28;;;;;;;3.07;2.87;;;28.30;40.20;;;;;;4993590;28;20422;-70
2022/08/25 02:40:59;;;;;;;3.20;3.00;;;28.20;40.20;;;;;;4989958;28;20438;-70
2022/08/25 02:43:30;;;;;;;2.83;2.63;;;28.20;40.10;;;;;;4986413;28;20493;-70
2022/08/25 02:45:59;;;;;;;3.00;2.80;;;28.20;40.20;;;;;;4974853;28;20521;-70
2022/08/25 02:48:27;;;;;;;3.40;3.20;;;28.20;39.90;;;;;;4992608;28;20456;-70
2022/08/25 02:51:00;;;;;;;3.37;3.17;;;28.20;40.20;;;;;;5002092;28;20982;-70
2022/08/25 02:53:31;;;;;;;3.27;2.97;;;28.20;41.50;;;;;;4989777;28;20465;-70
2022/08/25 02:56:03;;;;;;;3.33;3.13;;;28.20;40.20;;;;;;4987250;28;20431;-70
2022/08/25 02:58:32;;;;;;;2.90;2.70;;;28.20;40.00;;;;;;4967000;28;20515;-70
2022/08/25 03:01:00;;;;;;;3.03;2.83;;;28.20;40.40;;;;;;4981742;28;20469;-70
2022/08/25 03:03:29;;;;;;;3.30;3.00;;;28.20;40.50;;;;;;4970779;28;20536;-70
2022/08/25 03:05:58;;;;;;;2.80;2.60;;;28.20;40.10;;;;;;4985881;28;20452;-70
2022/08/25 03:08:26;;;;;;;3.00;2.80;;;28.20;40.40;;;;;;4982347;28;20973;-70
2022/08/25 03:10:55;;;;;;;3.13;2.83;;;28.10;40.00;;;;;;4983832;28;20475;-70
2022/08/25 03:13:24;;;;;;;3.53;3.23;;;28.20;40.00;;;;;;4982722;28;20504;-70
2022/08/25 03:15:53;;;;;;;3.30;3.10;;;28.20;40.00;;;;;;4969418;28;21286;-70
2022/08/25 03:18:23;;;;;;;3.23;3.03;;;28.20;40.20;;;;;;4988898;28;20529;-70
2022/08/25 03:20:51;;;;;;;2.73;2.53;;;28.10;40.00;;;;;;4977357;28;20548;-70
2022/08/25 03:23:20;;;;;;;3.10;2.90;;;28.10;40.30;;;;;;4987184;28;20474;-70
2022/08/25 03:28:37;;;;;;;3.07;2.87;;;28.10;40.20;;;;;;4987141;28;20540;-70
2022/08/25 03:31:06;;;;;;;2.53;2.43;;;28.10;40.00;;;;;;4991150;28;20470;-70
2022/08/25 03:33:35;;;;;;;3.13;2.90;;;28.10;40.10;;;;;;4991156;28;20458;-70
2022/08/25 03:36:04;;;;;;;5.23;2.63;;;28.10;40.20;;;;;;4996362;28;20434;-70
2022/08/25 03:38:33;;;;;;;3.07;2.87;;;28.10;40.20;;;;;;4983642;28;20443;-70
2022/08/25 03:41:01;;;;;;;3.60;3.40;;;28.10;40.00;;;;;;4999832;28;20844;-70
2022/08/25 03:43:30;;;;;;;3.13;2.93;;;28.10;39.90;;;;;;4988622;28;20832;-70
2022/08/25 03:46:00;;;;;;;3.30;3.10;;;28.10;40.10;;;;;;4991480;28;20434;-71
2022/08/25 03:48:28;;;;;;;2.83;2.63;;;28.10;40.10;;;;;;4989819;28;20445;-70
2022/08/25 03:50:57;;;;;;;2.93;2.73;;;28.10;40.30;;;;;;4975546;28;20441;-70
2022/08/25 03:53:25;;;;;;;3.53;3.20;;;28.00;40.00;;;;;;4997284;28;20452;-70
2022/08/25 03:55:53;;;;;;;3.00;2.80;;;28.10;40.00;;;;;;4996089;28;20429;-70
2022/08/25 03:58:22;;;;;;;2.70;2.60;;;28.00;40.00;;;;;;4990256;28;20953;-70
2022/08/25 04:00:50;;;;;;;2.90;2.70;;;28.00;40.10;;;;;;4982741;28;20473;-70
2022/08/25 04:03:20;;;;;;;3.07;2.87;;;28.00;40.30;;;;;;4996561;28;20533;-70
2022/08/25 04:05:48;;;;;;;3.47;3.17;;;28.00;40.20;;;;;;4991682;28;20457;-70
2022/08/25 04:08:17;;;;;;;3.37;3.17;;;28.00;40.20;;;;;;4997178;28;20670;-70
2022/08/25 04:10:47;;;;;;;3.03;2.73;;;28.00;40.30;;;;;;4988926;28;20468;-70
2022/08/25 04:13:16;;;;;;;2.93;2.63;;;28.00;40.00;;;;;;4990435;28;20971;-70
2022/08/25 04:15:45;;;;;;;3.50;2.40;;;28.00;40.00;;;;;;4996082;28;20812;-70
2022/08/25 04:18:13;;;;;;;3.17;2.97;;;28.00;40.10;;;;;;4991113;28;20778;-70
2022/08/25 04:20:43;;;;;;;3.20;3.00;;;28.00;39.90;;;;;;4987764;28;20465;-70
2022/08/25 04:23:14;;;;;;;3.83;3.43;;;28.00;39.90;;;;;;5001319;28;20940;-70
2022/08/25 04:25:42;;;;;;;3.10;2.87;;;28.00;39.90;;;;;;4990559;28;20481;-70
2022/08/25 04:28:13;;;;;;;2.90;2.70;;;28.00;40.00;;;;;;4995790;28;20954;-70
2022/08/25 04:30:43;;;;;;;3.27;3.07;;;28.00;40.00;;;;;;4980128;28;20558;-70
2022/08/25 04:33:16;;;;;;;2.70;2.50;;;28.00;39.90;;;;;;4984180;28;20442;-70
2022/08/25 04:35:48;;;;;;;3.37;3.13;;;27.90;40.00;;;;;;4988465;28;20929;-70
2022/08/25 04:38:17;;;;;;;3.20;3.00;;;27.90;40.10;;;;;;4983256;28;20853;-70
2022/08/25 04:40:46;;;;;;;3.43;2.90;;;27.90;40.20;;;;;;4995967;28;20477;-70
2022/08/25 04:43:14;;;;;;;3.90;2.63;;;27.90;40.20;;;;;;4989785;28;20821;-70
2022/08/25 04:45:42;;;;;;;3.27;2.97;;;27.90;40.00;;;;;;4991484;28;20481;-70
2022/08/25 04:48:11;;;;;;;3.20;3.00;;;27.90;40.00;;;;;;4986475;28;20525;-70
2022/08/25 04:50:39;;;;;;;3.03;2.83;;;27.90;39.90;;;;;;4983989;28;20458;-70
2022/08/25 04:53:09;;;;;;;3.00;2.80;;;27.90;40.30;;;;;;4977436;28;20457;-70
2022/08/25 04:55:41;;;;;;;2.93;2.73;;;27.90;40.50;;;;;;4984747;28;20528;-70
2022/08/25 04:58:09;;;;;;;2.87;2.67;;;27.90;40.40;;;;;;4974599;28;20864;-70
2022/08/25 05:00:45;;;;;;;3.03;2.83;;;27.80;40.20;;;;;;4979860;28;20453;-63
2022/08/25 05:03:14;;;;;;;3.27;3.07;;;27.90;40.50;;;;;;4973100;28;20462;-63
2022/08/25 05:05:42;;;;;;;4.77;2.97;;;27.80;40.20;;;;;;4979761;28;21033;-63
2022/08/25 05:08:12;;;;;;;3.37;3.17;;;27.80;40.20;;;;;;4980975;28;20437;-63
2022/08/25 05:10:41;;;;;;;3.13;2.93;;;27.80;40.40;;;;;;4990835;28;20461;-63
2022/08/25 05:13:11;;;;;;;2.37;2.27;;;27.80;40.40;;;;;;4978519;28;20461;-63
2022/08/25 05:15:52;;;;;;;6.50;3.10;;;27.80;40.70;;;;;;4994641;28;20444;-63
2022/08/25 05:18:22;;;;;;;4.97;2.97;;;27.80;40.90;;;;;;5002500;28;20669;-63
2022/08/25 05:20:52;;;;;;;2.70;2.50;;;27.80;40.80;;;;;;4988839;28;20460;-63
2022/08/25 05:23:24;;;;;;;2.97;2.70;;;27.80;40.90;;;;;;5019108;28;20452;-63
2022/08/25 05:25:53;;;;;;;2.73;2.53;;;27.80;41.20;;;;;;4989357;28;20837;-62
2022/08/25 05:28:22;;;;;;;3.00;2.80;;;27.80;40.90;;;;;;4979861;28;20450;-63
2022/08/25 05:30:50;;;;;;;2.80;2.60;;;27.80;40.60;;;;;;4998942;28;20441;-63
2022/08/25 05:33:19;;;;;;;3.20;3.00;;;27.80;40.50;;;;;;5007024;28;20453;-63
2022/08/25 05:35:47;;;;;;;2.77;2.57;;;27.80;40.60;;;;;;4987462;28;20481;-63
2022/08/25 05:38:18;;;;;;;2.90;2.70;;;27.70;40.70;;;;;;4987176;28;20516;-63
2022/08/25 05:40:48;;;;;;;3.27;2.97;;;27.70;41.00;;;;;;4985318;28;20448;-63
2022/08/25 05:43:16;;;;;;;3.27;3.07;;;27.70;42.10;;;;;;4990717;28;20460;-63
2022/08/25 05:45:45;;;;;;;4.33;2.70;;;27.70;41.00;;;;;;4990198;28;20473;-63
2022/08/25 05:48:14;;;;;;;3.73;3.43;;;27.70;40.90;;;;;;4987375;28;20434;-62
2022/08/25 05:50:50;;;;;;;2.67;2.47;;;27.70;40.80;;;;;;4991983;28;20481;-63
2022/08/25 05:53:20;;;;;;;2.90;2.70;;;27.70;40.60;;;;;;4993486;28;20828;-63
2022/08/25 05:55:51;;;;;;;2.80;2.60;;;27.70;40.50;;;;;;4986346;28;20591;-62
2022/08/25 05:58:19;;;;;;;2.53;2.43;;;27.70;40.80;;;;;;4983336;28;20450;-62
2022/08/25 06:00:49;;;;;;;3.00;2.60;;;27.70;40.80;;;;;;4986904;28;20520;-63
2022/08/25 06:03:16;;;;;;;3.30;3.03;;;27.70;40.60;;;;;;4995607;28;20445;-62
2022/08/25 06:05:45;;;;;;;2.80;2.60;;;27.70;40.50;;;;;;4979945;28;20521;-62
2022/08/25 06:08:14;;;;;;;3.07;2.83;;;27.70;40.60;;;;;;4988992;28;20441;-63
2022/08/25 06:10:43;;;;;;;3.37;3.10;;;27.60;40.20;;;;;;5003507;28;20433;-62
2022/08/25 06:13:13;;;;;;;3.60;3.40;;;27.60;40.20;;;;;;4986326;28;20456;-63
2022/08/25 06:15:41;;;;;;;2.90;2.70;;;27.60;40.20;;;;;;4990240;28;20470;-63
2022/08/25 06:18:10;;;;;;;2.97;2.70;;;27.60;40.50;;;;;;4989055;28;20422;-63
2022/08/25 06:20:38;;;;;;;3.13;2.93;;;27.60;40.40;;;;;;4986075;28;20940;-63
2022/08/25 06:23:06;;;;;;;3.40;3.10;;;27.60;40.30;;;;;;4986676;28;20559;-63
2022/08/25 06:25:35;;;;;;;3.13;2.93;;;27.60;40.30;;;;;;4987084;28;20505;-63
2022/08/25 06:28:03;;;;;;;3.87;3.43;;;27.60;40.20;;;;;;4982211;28;20446;-62
2022/08/25 06:30:33;;;;;;;3.30;2.73;;;27.60;40.30;;;;;;4983841;28;20450;-63
2022/08/25 06:33:02;;;;;;;4.20;3.37;;;27.60;40.30;;;;;;4985932;28;20469;-63
2022/08/25 06:35:30;;;;;;;4.40;3.60;;;27.60;40.20;;;;;;4991022;28;20445;-65
2022/08/25 06:38:02;;;;;;;3.60;3.30;;;27.60;40.70;;;;;;4988021;28;20798;-65
2022/08/25 06:40:30;;;;;;;3.83;3.53;;;27.60;39.70;;;;;;4994922;28;20422;-65
2022/08/25 06:42:59;;;;;;;5.05;4.00;;;27.60;38.90;;;;;;4986537;28;20487;-67
2022/08/25 06:45:27;;;;;;;5.33;4.00;;;27.60;37.70;;;;;;4983376;28;20282;-68
2022/08/25 06:47:59;;;;;;;4.43;3.50;;;27.70;37.40;;;;;;4984083;28;20442;-67
2022/08/25 06:50:27;;;;;;;5.07;3.20;;;27.80;37.20;;;;;;4960065;28;20454;-67
2022/08/25 06:52:55;;;;;;;3.53;3.10;;;27.90;36.70;;;;;;5001117;28;20543;-67
2022/08/25 06:55:24;;;;;;;3.97;3.67;;;28.00;36.50;;;;;;4978311;28;20487;-67
2022/08/25 06:57:53;;;;;;;4.00;3.60;;;28.10;36.10;;;;;;4988088;28;20442;-67
2022/08/25 07:00:22;;;;;;;6.47;3.50;;;28.20;35.60;;;;;;4986345;28;20452;-67
2022/08/25 07:03:00;;;;;;;4.93;3.87;;;28.30;35.40;;;;;;4991082;28;20445;-60
2022/08/25 07:05:29;;;;;;;7.27;3.87;;;28.20;34.90;;;;;;4982783;28;20980;-60
2022/08/25 07:08:11;;;;;;;7.87;3.90;;;28.10;35.90;;;;;;4990876;28;20913;-60
2022/08/25 07:10:39;;;;;;;4.57;4.07;;;28.10;35.30;;;;;;4991895;28;20536;-60
2022/08/25 07:13:14;;;;;;;4.30;3.60;;;28.10;35.90;;;;;;4985499;28;20468;-60
2022/08/25 07:15:43;;;;;;;5.27;3.60;;;28.10;35.30;;;;;;4993196;28;20447;-60
2022/08/25 07:18:14;;;;;;;3.90;3.60;;;28.10;35.30;;;;;;4995055;28;20505;-60
2022/08/25 07:20:43;;;;;;;3.77;3.47;;;28.10;34.50;;;;;;5002883;23;20563;-62
2022/08/25 07:23:11;;;;;;;4.90;3.57;;;28.10;34.30;;;;;;5005919;28;20464;-72
2022/08/25 07:25:40;;;;;;;4.33;2.90;;;28.10;35.20;;;;;;5012616;28;20465;-71
2022/08/25 07:28:08;;;;;;;3.70;3.30;;;28.20;34.20;;;;;;5019537;28;20436;-72
2022/08/25 07:30:37;;;;;;;3.00;2.80;;;28.20;34.90;;;;;;5015534;28;20444;-72
2022/08/25 07:33:06;;;;;;;4.00;3.60;;;28.20;35.00;;;;;;5011503;28;20492;-71
2022/08/25 07:35:35;;;;;;;3.63;3.27;;;28.30;35.10;;;;;;5007612;28;20464;-71
2022/08/25 07:38:06;;;;;;;3.50;3.30;;;28.20;34.70;;;;;;5002548;28;20440;-71
2022/08/25 07:40:39;;;;;;;3.73;3.43;;;28.30;35.20;;;;;;5011740;28;20451;-71
2022/08/25 07:43:10;;;;;;;3.53;3.33;;;28.30;34.70;;;;;;5007825;28;20472;-71
2022/08/25 07:45:39;;;;;;;6.43;3.20;;;28.30;34.70;;;;;;5010653;28;20475;-71
2022/08/25 07:48:18;;;;;;;3.73;3.40;;;28.30;34.70;;;;;;5009871;28;20460;-72
2022/08/25 07:50:48;;;;;;;5.03;3.50;;;28.30;35.10;;;;;;5008335;28;20445;-72
2022/08/25 07:53:18;;;;;;;4.47;3.80;;;28.30;35.00;;;;;;5018153;28;21000;-71
2022/08/25 07:55:47;;;;;;;3.80;2.90;;;28.30;34.00;;;;;;5009723;28;20534;-71
2022/08/25 07:58:17;;;;;;;3.57;3.10;;;28.30;34.70;;;;;;5025056;28;20810;-72
2022/08/25 08:00:47;;;;;;;3.27;2.97;;;28.30;34.70;;;;;;5010558;28;20480;-72
2022/08/25 08:03:17;;;;;;;6.70;3.33;;;28.30;34.80;;;;;;5008767;28;20491;-71
2022/08/25 08:06:10;;;;;;;3.60;3.30;;;28.30;34.80;;;;;;5007857;28;20498;-72
2022/08/25 08:08:42;;;;;;;4.90;3.30;;;28.30;35.10;;;;;;5011487;28;20440;-71
2022/08/25 08:11:15;;;;;;;6.10;3.50;;;28.30;34.90;;;;;;5010228;28;20439;-71
2022/08/25 08:13:44;;;;;;;2.80;2.60;;;28.20;35.00;;;;;;5008605;28;20713;-70
2022/08/25 08:16:14;;;;;;;4.20;2.90;;;28.10;35.40;;;;;;5010637;28;21069;-71
2022/08/25 08:18:44;;;;;;;5.40;3.00;;;28.00;35.90;;;;;;5027581;28;20432;-71
2022/08/25 08:21:19;;;;;;;3.67;3.30;;;27.90;36.20;;;;;;5002576;28;20504;-71
2022/08/25 08:23:48;;;;;;;4.10;3.43;;;27.80;36.60;;;;;;5007608;28;20519;-70
2022/08/25 08:26:17;;;;;;;3.90;3.60;;;27.80;36.80;;;;;;5013770;28;20473;-70
2022/08/25 08:28:46;;;;;;;3.10;2.90;;;27.70;36.80;;;;;;5005385;28;20979;-70
2022/08/25 08:31:20;;;;;;;3.50;3.30;;;27.70;37.20;;;;;;5015950;28;20440;-70
2022/08/25 08:33:49;;;;;;;3.43;2.63;;;27.60;37.20;;;;;;5009886;28;20995;-71
2022/08/25 08:36:20;;;;;;;5.50;3.20;;;27.60;37.50;;;;;;5006912;28;20511;-71
2022/08/25 08:38:52;;;;;;;3.30;3.00;;;27.60;37.50;;;;;;5009193;28;20460;-71
2022/08/25 08:44:49;;;;;;;3.00;2.80;;;27.60;37.70;;;;;;5012541;28;20452;-70
2022/08/25 08:47:35;;;;;;;3.00;2.80;;;27.60;37.80;;;;;;5009177;28;20469;-68
2022/08/25 08:50:17;;;;;;;3.60;3.30;;;27.60;37.80;;;;;;5005786;28;21018;-69
2022/08/25 08:52:59;;;;;;;3.00;2.80;;;27.60;37.80;;;;;;5009880;28;20510;-68
2022/08/25 08:55:32;;;;;;;3.70;3.40;;;27.60;39.20;;;;;;5017202;28;20445;-68
2022/08/25 08:58:05;;;;;;;3.87;3.47;;;27.60;37.90;;;;;;5006992;28;21084;-67
2022/08/25 09:00:40;;;;;;;3.00;2.80;;;27.60;38.10;;;;;;5008561;28;20441;-67
2022/08/25 09:03:29;;;;;;;3.63;2.90;;;27.60;38.10;;;;;;5003315;28;20841;-67
2022/08/25 09:06:03;;;;;;;3.33;3.07;;;27.60;38.10;;;;;;5006928;28;20453;-66
2022/08/25 09:08:37;;;;;;;2.97;2.77;;;27.60;38.10;;;;;;5008829;28;20487;-68
2022/08/25 09:11:23;;;;;;;3.03;2.83;;;27.60;38.20;;;;;;5016604;28;20463;-68
2022/08/25 09:14:19;;;;;;;3.37;3.07;;;27.60;38.30;;;;;;4990717;28;20539;-68
2022/08/25 09:17:05;;;;;;;3.00;2.70;;;27.60;38.30;;;;;;5000148;28;20808;-71
2022/08/25 09:20:14;;;;;;;2.90;2.70;;;27.60;38.30;;;;;;5015380;28;20460;-71
2022/08/25 09:22:55;;;;;;;2.87;2.57;;;27.50;38.40;;;;;;5018045;28;20775;-71
2022/08/25 09:25:37;;;;;;;2.80;2.60;;;27.50;38.40;;;;;;5005170;28;20433;-72
2022/08/25 09:28:29;;;;;;;3.17;2.97;;;27.50;38.50;;;;;;5002464;28;20812;-71
2022/08/25 09:31:03;;;;;;;5.07;2.77;;;27.60;38.50;;;;;;5004083;28;20502;-71
2022/08/25 09:33:34;;;;;;;2.50;2.30;;;27.50;38.50;;;;;;5010608;28;20456;-70
2022/08/25 09:36:04;;;;;;;3.50;2.87;;;27.60;38.50;;;;;;5010971;28;20535;-70
2022/08/25 09:38:36;;;;;;;3.30;2.97;;;27.60;38.60;;;;;;5016376;28;20524;-70
2022/08/25 09:41:10;;;;;;;3.03;2.83;;;27.50;38.40;;;;;;5009245;28;20852;-73
2022/08/25 09:43:42;;;;;;;3.37;3.07;;;27.50;38.50;;;;;;5012607;28;20836;-70
2022/08/25 09:46:12;;;;;;;2.20;2.10;;;27.50;38.60;;;;;;5004081;28;20445;-71
2022/08/25 09:48:47;;;;;;;4.07;3.20;;;27.50;38.60;;;;;;5007467;28;21423;-72
2022/08/25 09:51:27;;;;;;;3.13;2.83;;;27.50;38.60;;;;;;5005665;28;20468;-70
2022/08/25 09:54:00;;;;;;;3.00;2.80;;;27.50;38.60;;;;;;4997220;28;20465;-71
2022/08/25 09:56:50;;;;;;;3.10;2.80;;;27.50;38.70;;;;;;5007118;28;20483;-71
2022/08/25 09:59:21;;;;;;;3.10;2.67;;;27.50;38.70;;;;;;5006314;28;20452;-70
2022/08/25 10:02:05;;;;;;;4.83;2.90;;;27.50;38.60;;;;;;5005459;28;20476;-71
2022/08/25 10:04:36;;;;;;;2.90;2.60;;;27.50;38.60;;;;;;5005339;28;20436;-71
2022/08/25 10:07:22;;;;;;;2.97;2.50;;;27.50;38.80;;;;;;5006906;28;20667;-72
2022/08/25 10:09:54;;;;;;;2.50;2.30;;;27.50;38.70;;;;;;5007734;28;20449;-70
2022/08/25 10:12:39;;;;;;;2.73;2.40;;;27.50;38.70;;;;;;5016297;28;21025;-72
2022/08/25 10:15:18;;;;;;;2.70;2.50;;;27.50;38.70;;;;;;5008737;28;20563;-72
2022/08/25 10:18:19;;;;;;;2.90;2.70;;;27.50;38.70;;;;;;5006356;28;20456;-71
2022/08/25 10:21:07;;;;;;;3.73;2.90;;;27.50;38.70;;;;;;4991145;28;20465;-72
2022/08/25 10:23:43;;;;;;;2.37;2.27;;;27.50;38.70;;;;;;4987598;28;20996;-70
2022/08/25 10:26:26;;;;;;;2.27;2.17;;;27.50;38.70;;;;;;4992365;28;20463;-72
2022/08/25 10:29:06;;;;;;;2.77;2.57;;;27.50;38.60;;;;;;5013487;28;20530;-72
2022/08/25 10:31:44;;;;;;;3.37;3.07;;;27.50;38.70;;;;;;5006148;28;20568;-71
2022/08/25 10:34:25;;;;;;;2.80;2.60;;;27.50;38.70;;;;;;5019632;28;20462;-71
2022/08/25 10:37:02;;;;;;;2.80;2.30;;;27.50;38.70;;;;;;5005395;28;20472;-72
2022/08/25 10:39:41;;;;;;;2.57;2.30;;;27.50;38.70;;;;;;5014828;28;20451;-70
2022/08/25 10:42:29;;;;;;;2.67;2.47;;;27.50;38.70;;;;;;5005507;28;20496;-70
2022/08/25 10:48:19;;;;;;;2.93;2.67;;;27.50;38.60;;;;;;4999399;28;20828;-72
2022/08/25 10:50:56;;;;;;;2.50;2.30;;;27.50;38.60;;;;;;4994136;28;20453;-71
2022/08/25 10:53:29;;;;;;;2.73;2.53;;;27.50;38.70;;;;;;5014901;28;20455;-71
2022/08/25 10:56:06;;;;;;;2.80;2.60;;;27.50;38.80;;;;;;5008217;28;20558;-71
2022/08/25 10:59:11;;;;;;;3.40;2.23;;;27.50;38.80;;;;;;5016031;28;20456;-70
2022/08/25 11:02:04;;;;;;;2.60;2.40;;;27.50;38.60;;;;;;4951665;28;21023;-70
2022/08/25 11:04:38;;;;;;;2.67;2.47;;;27.50;38.60;;;;;;4995890;28;20455;-70
2022/08/25 11:07:16;;;;;;;2.70;2.50;;;27.50;38.60;;;;;;5000151;28;20468;-71
2022/08/25 11:09:49;;;;;;;2.33;2.13;;;27.50;38.60;;;;;;5015058;28;20950;-71
2022/08/25 11:12:26;;;;;;;2.97;2.50;;;27.60;38.60;;;;;;4989531;28;21002;-71
2022/08/25 11:14:59;;;;;;;2.83;2.63;;;27.50;38.50;;;;;;5005709;28;20441;-70
2022/08/25 11:17:39;;;;;;;4.23;2.60;;;27.60;38.60;;;;;;4989378;28;20485;-70
2022/08/25 11:20:16;;;;;;;2.73;2.53;;;27.50;38.50;;;;;;5000393;28;20507;-70
2022/08/25 11:23:06;;;;;;;2.60;2.40;;;27.50;38.50;;;;;;5014325;28;20995;-72
2022/08/25 11:25:42;;;;;;;2.60;2.40;;;27.50;38.50;;;;;;5006379;28;20456;-70
2022/08/25 11:28:16;;;;;;;2.30;2.17;;;27.60;38.60;;;;;;5010663;28;20525;-71
2022/08/25 11:30:46;;;;;;;2.57;2.40;;;27.50;38.50;;;;;;5006393;28;20471;-71
2022/08/25 11:33:18;;;;;;;2.23;2.13;;;27.50;38.50;;;;;;5012979;28;20499;-71
2022/08/25 11:35:53;;;;;;;2.80;2.60;;;27.60;38.60;;;;;;5005136;28;20440;-70
2022/08/25 11:38:39;;;;;;;2.50;2.37;;;27.60;38.60;;;;;;5008077;28;20527;-71
2022/08/25 11:41:20;;;;;;;3.30;2.67;;;27.60;38.50;;;;;;5000257;28;20884;-72
2022/08/25 11:44:05;;;;;;;2.67;2.47;;;27.60;38.60;;;;;;5007682;28;20579;-72
2022/08/25 11:46:55;;;;;;;2.80;2.47;;;27.60;38.60;;;;;;5008142;28;20452;-70
2022/08/25 11:49:50;;;;;;;2.63;2.43;;;27.60;38.50;;;;;;5010453;28;20614;-72
2022/08/25 11:52:52;;;;;;;2.77;2.57;;;27.60;38.40;;;;;;5004262;28;21167;-71
2022/08/25 11:55:28;;;;;;;2.50;2.30;;;27.60;38.50;;;;;;5017080;28;20443;-71
2022/08/25 11:58:28;;;;;;;2.00;1.90;;;27.60;38.50;;;;;;5002501;28;20496;-72
2022/08/25 12:00:59;;;;;;;2.27;2.17;;;27.60;38.50;;;;;;4998613;28;20451;-70
2022/08/25 12:03:52;;;;;;;2.77;2.37;;;27.60;38.60;;;;;;5009073;28;20464;-71
2022/08/25 12:06:29;;;;;;;2.90;1.93;;;27.60;38.50;;;;;;4998111;28;20523;-72
2022/08/25 12:09:17;;;;;;;2.57;2.37;;;27.60;38.40;;;;;;5021102;28;20479;-70
2022/08/25 12:11:57;;;;;;;2.53;2.33;;;27.60;38.40;;;;;;5026259;28;20527;-72
2022/08/25 12:14:53;;;;;;;3.03;2.33;;;27.60;38.50;;;;;;5005569;28;20454;-72
2022/08/25 12:17:26;;;;;;;2.60;2.40;;;27.60;38.50;;;;;;4975795;28;20485;-71
2022/08/25 12:19:59;;;;;;;3.00;2.23;;;27.60;38.40;;;;;;4992434;28;20459;-71
2022/08/25 12:22:58;;;;;;;2.90;2.70;;;27.60;38.60;;;;;;5024472;28;21009;-71
2022/08/25 12:25:45;;;;;;;2.67;2.20;;;27.60;38.60;;;;;;5013406;28;20433;-71
2022/08/25 12:28:53;;;;;;;2.40;2.30;;;27.60;38.50;;;;;;5001991;28;20469;-71
2022/08/25 12:31:31;;;;;;;2.53;2.33;;;27.60;38.60;;;;;;4920524;29;20835;-72
2022/08/25 12:34:21;;;;;;;3.00;2.80;;;27.60;38.60;;;;;;4911057;29;20491;-71
2022/08/25 12:37:02;;;;;;;2.50;2.30;;;27.60;38.50;;;;;;4983456;28;20548;-70
2022/08/25 12:39:42;;;;;;;2.63;2.43;;;27.60;38.40;;;;;;5001169;28;20431;-70
2022/08/25 12:42:24;;;;;;;2.20;2.10;;;27.60;39.70;;;;;;5008219;28;20488;-70
2022/08/25 12:45:12;;;;;;;2.53;2.33;;;27.60;38.50;;;;;;5014933;28;20589;-71
2022/08/25 12:47:43;;;;;;;2.60;2.40;;;27.60;38.50;;;;;;4992174;28;20472;-70
2022/08/25 12:50:36;;;;;;;2.60;2.40;;;27.60;38.50;;;;;;5005653;28;20461;-70
2022/08/25 12:53:12;;;;;;;2.40;2.30;;;27.70;38.60;;;;;;5009222;28;20472;-70
2022/08/25 12:55:48;;;;;;;3.13;2.73;;;27.70;38.60;;;;;;5010335;28;20951;-70
2022/08/25 12:58:17;;;;;;;3.37;3.07;;;27.70;38.20;;;;;;5009944;28;20447;-71
2022/08/25 13:01:01;;;;;;;3.97;2.80;;;27.70;37.20;;;;;;5008892;28;20443;-71
2022/08/25 13:04:04;;;;;;;5.07;3.07;;;27.90;36.70;;;;;;4989493;28;20214;-71
2022/08/25 13:06:47;;;;;;;4.10;3.00;;;27.90;36.60;;;;;;5009712;28;20481;-70
2022/08/25 13:09:43;;;;;;;2.87;2.43;;;27.80;36.80;;;;;;5020775;28;20549;-72
2022/08/25 13:12:18;;;;;;;2.80;2.60;;;27.80;37.20;;;;;;5026495;28;20494;-70
2022/08/25 13:14:53;;;;;;;3.83;2.60;;;27.90;37.20;;;;;;5005822;28;20456;-72
2022/08/25 13:17:27;;;;;;;2.53;2.33;;;27.80;37.30;;;;;;4991285;28;21072;-72
2022/08/25 13:20:18;;;;;;;4.00;2.67;;;27.80;37.20;;;;;;5015620;23;20513;-71
2022/08/25 13:22:49;;;;;;;2.80;2.60;;;27.80;37.40;;;;;;5012173;28;20464;-71
2022/08/25 13:25:28;;;;;;;2.50;2.33;;;27.80;37.40;;;;;;4992691;28;20437;-71
2022/08/25 13:28:03;;;;;;;2.47;2.27;;;27.80;37.50;;;;;;4989532;28;20459;-71
2022/08/25 13:30:35;;;;;;;3.27;3.07;;;27.80;37.50;;;;;;4994112;28;20896;-71
2022/08/25 13:33:17;;;;;;;3.60;3.20;;;27.80;37.70;;;;;;4982045;28;20450;-71